This is the latest recevied weather packets stored in our database for station/object N9DMT-13. If no packets are shown the sender has not sent any weather packets the latest 1 day(s).
| Time | Temp. | Humidity | Pressure | Rain* | Wind** | Luminosity | Snow |
|---|---|---|---|---|---|---|---|
| 1778015304 | 12.78° C | 35% | 977.8 hPa | 0 mm | 1.34 m/s, 287° | - | - |
| 1778015003 | 12.78° C | 35% | 977.8 hPa | 0 mm | 1.34 m/s, 227° | - | - |
| 1778014703 | 12.78° C | 40% | 977.9 hPa | 0 mm | 0 m/s | - | - |
| 1778014402 | 12.22° C | 35% | 977.9 hPa | 0 mm | 2.24 m/s, 346° | - | - |
| 1778014101 | 12.22° C | 37% | 978.1 hPa | 0 mm | 0.45 m/s, 302° | - | - |
| 1778013800 | 13.33° C | 36% | 978.2 hPa | 0 mm | 2.24 m/s, 327° | - | - |
| 1778013499 | 13.89° C | 33% | 978.1 hPa | 0 mm | 0 m/s | - | - |
| 1778013199 | 13.33° C | 34% | 978.2 hPa | 0 mm | 0.45 m/s, 275° | - | - |
| 1778012898 | 12.78° C | 34% | 978.3 hPa | 0 mm | 0.89 m/s, 334° | - | - |
| 1778012597 | 13.33° C | 35% | 978.1 hPa | 0 mm | 0 m/s | - | - |
| 1778012296 | 13.89° C | 35% | 978.1 hPa | 0 mm | 0 m/s | - | - |
| 1778011996 | 13.89° C | 34% | 978.1 hPa | 0 mm | 0.45 m/s, 270° | - | - |
| 1778011695 | 13.89° C | 36% | 978.2 hPa | 0 mm | 0 m/s | - | - |
| 1778011394 | 12.78° C | 37% | 978.2 hPa | 0 mm | 1.34 m/s, 236° | - | - |
| 1778011093 | 12.78° C | 35% | 978.1 hPa | 0 mm | 4.02 m/s, 334° | - | - |
| 1778010792 | 12.78° C | 35% | 978.1 hPa | 0 mm | 0.45 m/s, 275° | - | - |
| 1778010492 | 12.78° C | 40% | 978.3 hPa | 0 mm | 1.79 m/s, 18° | - | - |
| 1778010184 | 12.78° C | 36% | 978.3 hPa | 0 mm | 0 m/s | - | - |
| 1778009883 | 13.33° C | 34% | 978.1 hPa | 0 mm | 0.89 m/s, 251° | - | - |
| 1778009582 | 12.78° C | 36% | 978.1 hPa | 0 mm | 0.89 m/s, 252° | - | - |
| 1778009281 | 12.78° C | 34% | 978.2 hPa | 0 mm | 0.89 m/s, 225° | - | - |
| 1778008981 | 13.33° C | 36% | 978.3 hPa | 0 mm | 0.45 m/s, 287° | - | - |
| 1778008680 | 13.33° C | 34% | 977.9 hPa | 0 mm | 0.89 m/s, 246° | - | - |
| 1778008379 | 13.33° C | 35% | 978.2 hPa | 0 mm | 0 m/s | - | - |
| 1778008078 | 13.89° C | 35% | 978.2 hPa | 0 mm | 1.79 m/s, 252° | - | - |
* Rain latest hour (hover to see other rain measurements)
** Current wind speed in m/s (hover to see current wind gust speed)